Time;durP1;ratioP1;P1;durP2;ratioP2;P2;SDS_P1;SDS_P2;PMS_P1;PMS_P2;Temp;Humidity;BMP_temperature;BMP_pressure;BME280_temperature;BME280_humidity;BME280_pressure;Samples;Min_cycle;Max_cycle;Signal;HPM_P1;HPM_P2
2022/10/24 00:03:16;;;;;;;0.20;0.00;;;20.80;99.90;;;;;;26244967;22;20430;-70
2022/10/24 00:13:21;;;;;;;0.20;0.00;;;20.70;99.90;;;;;;26271289;22;20366;-69
2022/10/24 00:23:25;;;;;;;0.20;0.00;;;20.90;99.90;;;;;;26298277;22;20362;-70
2022/10/24 00:33:30;;;;;;;0.20;0.00;;;21.10;99.90;;;;;;26299021;22;20439;-71
2022/10/24 00:43:34;;;;;;;0.20;0.00;;;21.30;99.90;;;;;;26297577;22;20356;-70
2022/10/24 00:53:45;;;;;;;0.20;0.00;;;21.20;99.90;;;;;;26271316;22;20390;-70
2022/10/24 01:03:49;;;;;;;0.20;0.00;;;21.40;99.90;;;;;;26298405;22;20373;-71
2022/10/24 01:14:02;;;;;;;0.20;0.00;;;21.70;99.90;;;;;;26296125;22;20363;-70
2022/10/24 01:24:30;;;;;;;0.20;0.00;;;21.60;99.90;;;;;;26268331;22;20366;-71
2022/10/24 01:34:43;;;;;;;0.20;0.00;;;21.70;99.90;;;;;;26296164;22;20370;-70
2022/10/24 01:44:50;;;;;;;0.20;0.00;;;21.60;99.90;;;;;;26267086;22;20371;-71
2022/10/24 01:54:55;;;;;;;0.20;0.00;;;21.50;99.90;;;;;;26297046;22;21002;-71
2022/10/24 02:05:05;;;;;;;0.20;0.00;;;20.70;99.90;;;;;;26294848;22;20363;-71
2022/10/24 02:15:15;;;;;;;0.20;0.00;;;20.20;99.90;;;;;;26238997;22;20371;-70
2022/10/24 02:25:24;;;;;;;0.20;0.00;;;19.60;99.90;;;;;;26296105;22;20359;-71
2022/10/24 02:35:32;;;;;;;0.20;0.00;;;19.20;99.90;;;;;;26267229;22;20367;-71
2022/10/24 02:45:37;;;;;;;0.20;0.00;;;18.80;99.90;;;;;;26294824;22;20452;-70
2022/10/24 02:55:42;;;;;;;0.20;0.00;;;19.00;99.90;;;;;;26265819;22;20371;-69
2022/10/24 03:05:46;;;;;;;0.20;0.05;;;18.90;99.90;;;;;;26293638;22;20370;-69
2022/10/24 03:15:51;;;;;;;0.20;0.00;;;19.30;99.90;;;;;;26302558;22;20367;-70
2022/10/24 03:25:56;;;;;;;0.20;0.00;;;19.00;99.90;;;;;;26272427;22;20362;-71
2022/10/24 03:36:01;;;;;;;0.20;0.00;;;18.70;99.90;;;;;;26301427;22;20378;-71
2022/10/24 03:46:05;;;;;;;0.20;0.00;;;18.60;99.90;;;;;;26299537;22;20359;-72
2022/10/24 03:56:10;;;;;;;0.20;0.00;;;19.00;99.90;;;;;;26300534;22;20365;-72
2022/10/24 04:06:14;;;;;;;0.20;0.00;;;19.50;99.90;;;;;;26299158;22;20359;-71
2022/10/24 04:16:22;;;;;;;0.20;0.00;;;20.10;99.90;;;;;;26300272;22;20378;-71
2022/10/24 04:26:26;;;;;;;0.20;0.00;;;19.80;99.90;;;;;;26298010;22;20379;-70
2022/10/24 04:36:31;;;;;;;0.20;0.00;;;20.40;99.90;;;;;;26298251;22;20367;-70
2022/10/24 04:46:35;;;;;;;0.20;0.00;;;20.60;99.90;;;;;;26296959;22;20370;-70
2022/10/24 04:56:40;;;;;;;0.20;0.00;;;21.00;99.90;;;;;;26267714;22;20392;-71
2022/10/24 05:06:45;;;;;;;0.20;0.00;;;20.80;99.90;;;;;;26268945;22;20430;-70
2022/10/24 05:16:51;;;;;;;0.20;0.00;;;20.80;99.90;;;;;;26268867;22;20363;-70
2022/10/24 05:26:54;;;;;;;0.20;0.00;;;21.00;99.90;;;;;;26296642;22;20359;-71
2022/10/24 05:37:00;;;;;;;0.20;0.00;;;20.80;99.90;;;;;;26293040;22;20382;-70
2022/10/24 05:47:03;;;;;;;0.20;0.00;;;20.70;99.90;;;;;;26292413;22;20355;-72
2022/10/24 05:57:08;;;;;;;0.20;0.00;;;20.60;99.90;;;;;;26282489;22;20396;-73
2022/10/24 06:07:12;;;;;;;0.20;0.00;;;20.60;99.90;;;;;;26285832;22;20359;-72
2022/10/24 06:17:17;;;;;;;0.20;0.00;;;20.20;99.90;;;;;;26290996;22;20364;-71
2022/10/24 06:27:21;;;;;;;0.20;0.00;;;19.60;99.90;;;;;;26292719;22;20363;-70
2022/10/24 06:37:27;;;;;;;0.20;0.00;;;19.30;99.90;;;;;;26289064;22;20371;-69
2022/10/24 06:47:32;;;;;;;0.20;0.00;;;19.20;99.90;;;;;;26264854;22;20359;-71
2022/10/24 06:57:37;;;;;;;0.20;0.03;;;19.70;99.90;;;;;;26289314;22;20355;-70
2022/10/24 07:07:41;;;;;;;0.20;0.00;;;19.80;99.90;;;;;;26289096;22;20355;-72
2022/10/24 07:17:47;;;;;;;0.20;0.00;;;20.10;99.90;;;;;;26258515;22;20367;-71
2022/10/24 07:27:53;;;;;;;0.20;0.00;;;20.50;99.90;;;;;;26262680;22;20374;-73
2022/10/24 07:37:59;;;;;;;0.20;0.00;;;20.90;99.90;;;;;;26290838;22;20363;-70
2022/10/24 07:48:04;;;;;;;0.20;0.00;;;21.40;99.90;;;;;;26234016;22;20359;-69
2022/10/24 07:58:11;;;;;;;0.20;0.10;;;21.80;99.90;;;;;;26294957;22;20395;-71
2022/10/24 08:08:14;;;;;;;0.20;0.00;;;22.30;99.90;;;;;;26296569;22;20359;-71
2022/10/24 08:18:40;;;;;;;0.20;0.00;;;22.90;99.90;;;;;;26268887;22;20375;-73
2022/10/24 08:28:45;;;;;;;0.20;0.10;;;23.40;99.90;;;;;;26270262;22;20359;-74
2022/10/24 08:38:50;;;;;;;0.20;0.00;;;23.90;99.90;;;;;;26267713;22;20363;-71
2022/10/24 08:49:00;;;;;;;0.20;0.10;;;24.50;99.90;;;;;;26236997;22;20351;-70
2022/10/24 08:59:07;;;;;;;0.20;0.10;;;24.40;99.90;;;;;;26240896;22;20366;-73
2022/10/24 09:09:19;;;;;;;0.20;0.03;;;24.10;99.90;;;;;;26293080;22;20355;-71
2022/10/24 09:19:27;;;;;;;0.20;0.00;;;24.10;99.90;;;;;;26292027;22;20364;-72
2022/10/24 09:29:33;;;;;;;0.20;0.10;;;24.10;99.90;;;;;;26264056;22;20358;-72
2022/10/24 09:39:39;;;;;;;0.20;0.10;;;24.40;99.90;;;;;;26263594;22;20375;-71
2022/10/24 09:49:46;;;;;;;0.20;0.00;;;24.50;99.90;;;;;;26262244;22;20366;-72
2022/10/24 10:00:00;;;;;;;0.20;0.00;;;24.60;99.90;;;;;;26290176;22;20367;-71
2022/10/24 10:10:08;;;;;;;0.20;0.00;;;24.70;99.90;;;;;;26289731;22;20375;-70
2022/10/24 10:20:24;;;;;;;0.20;0.00;;;25.40;99.90;;;;;;26264038;22;20364;-71
2022/10/24 10:30:28;;;;;;;0.20;0.00;;;26.30;99.90;;;;;;26264788;22;20355;-69
2022/10/24 10:40:37;;;;;;;0.20;0.10;;;26.70;99.90;;;;;;26288595;22;20384;-71
2022/10/24 10:50:45;;;;;;;0.20;0.00;;;27.40;99.90;;;;;;26287437;22;20378;-69
2022/10/24 11:00:56;;;;;;;0.20;0.00;;;27.20;99.90;;;;;;26291617;22;20372;-69
2022/10/24 11:11:03;;;;;;;0.20;0.00;;;28.50;99.90;;;;;;26286725;22;20363;-70
2022/10/24 11:21:10;;;;;;;0.20;0.00;;;29.00;99.90;;;;;;26287689;22;20367;-70
2022/10/24 11:31:21;;;;;;;0.20;0.00;;;28.30;99.90;;;;;;26291721;22;20351;-73
2022/10/24 11:41:41;;;;;;;0.20;0.00;;;28.40;99.90;;;;;;26139560;22;21264;-69
2022/10/24 11:51:50;;;;;;;0.20;0.00;;;27.90;99.90;;;;;;26163688;22;20376;-70
2022/10/24 12:02:35;;;;;;;0.20;0.00;;;26.60;99.90;;;;;;26161133;22;20365;-70
2022/10/24 12:12:54;;;;;;;0.20;0.00;;;27.50;99.90;;;;;;26163357;22;20361;-70
2022/10/24 12:23:01;;;;;;;0.20;0.00;;;27.20;99.90;;;;;;26163437;22;20365;-70
2022/10/24 12:33:12;;;;;;;0.20;0.10;;;26.10;99.90;;;;;;26135388;22;20432;-72
2022/10/24 12:43:28;;;;;;;0.20;0.00;;;26.60;99.90;;;;;;26156831;22;20367;-70
2022/10/24 12:53:54;;;;;;;0.20;0.07;;;29.30;99.90;;;;;;26163316;22;20368;-70
2022/10/24 13:04:28;;;;;;;0.20;0.00;;;27.60;99.90;;;;;;26163320;22;20442;-71
2022/10/24 13:15:14;;;;;;;0.20;0.00;;;27.10;99.90;;;;;;26162766;22;20442;-71
2022/10/24 13:25:32;;;;;;;0.20;0.10;;;27.80;99.90;;;;;;26163799;22;20384;-69
2022/10/24 13:35:36;;;;;;;0.20;0.00;;;28.30;99.90;;;;;;26161654;22;20377;-70
2022/10/24 13:45:47;;;;;;;0.20;0.00;;;28.20;99.90;;;;;;26161516;22;20365;-69
2022/10/24 13:55:51;;;;;;;0.20;0.00;;;28.90;99.90;;;;;;26158143;22;20357;-71
2022/10/24 14:05:59;;;;;;;0.20;0.00;;;29.10;99.90;;;;;;26160843;22;20353;-71
2022/10/24 14:16:05;;;;;;;0.20;0.00;;;29.40;99.90;;;;;;26154903;22;20372;-71
2022/10/24 14:26:15;;;;;;;0.20;0.00;;;29.50;99.90;;;;;;26155297;22;20357;-71
2022/10/24 14:36:20;;;;;;;0.20;0.00;;;29.10;99.90;;;;;;26152029;22;20383;-73
2022/10/24 14:46:41;;;;;;;0.20;0.00;;;30.20;99.90;;;;;;26154436;22;20368;-70
2022/10/24 14:56:45;;;;;;;0.20;0.00;;;29.90;99.90;;;;;;26150217;22;20385;-70
2022/10/24 15:06:55;;;;;;;0.20;0.00;;;29.00;99.90;;;;;;26160973;22;20388;-70
2022/10/24 15:17:03;;;;;;;0.20;0.00;;;26.70;99.90;;;;;;26163850;22;20365;-71
2022/10/24 15:27:12;;;;;;;0.20;0.00;;;26.00;99.90;;;;;;26161379;22;20360;-68
2022/10/24 15:37:21;;;;;;;0.20;0.00;;;26.90;99.90;;;;;;26162674;22;20373;-69
2022/10/24 15:47:28;;;;;;;0.20;0.00;;;26.70;99.90;;;;;;26161424;22;20372;-70
2022/10/24 15:57:31;;;;;;;0.20;0.00;;;26.60;99.90;;;;;;26159932;22;20402;-71
2022/10/24 16:07:36;;;;;;;0.20;0.00;;;26.80;99.90;;;;;;26160980;22;20357;-71
2022/10/24 16:17:40;;;;;;;0.20;0.00;;;27.00;99.90;;;;;;26160712;22;20380;-74
2022/10/24 16:27:47;;;;;;;0.20;0.00;;;26.70;99.90;;;;;;26158652;22;20437;-72
2022/10/24 16:37:51;;;;;;;0.20;0.00;;;26.30;99.90;;;;;;26160515;22;20543;-73
2022/10/24 16:47:56;;;;;;;0.20;0.10;;;26.20;99.90;;;;;;26159646;22;20367;-71
2022/10/24 16:58:00;;;;;;;0.20;0.00;;;25.90;99.90;;;;;;26153895;22;20380;-69
2022/10/24 17:08:06;;;;;;;0.20;0.00;;;25.70;99.90;;;;;;26158685;22;20361;-72
2022/10/24 17:18:11;;;;;;;0.20;0.10;;;25.50;99.90;;;;;;26156119;22;20376;-71
2022/10/24 17:28:17;;;;;;;0.20;0.00;;;25.10;99.90;;;;;;26157198;22;20353;-71
2022/10/24 17:38:33;;;;;;;0.20;0.00;;;24.70;99.90;;;;;;26155926;22;20364;-71
2022/10/24 17:48:39;;;;;;;0.20;0.00;;;24.40;99.90;;;;;;26155423;22;21272;-69
2022/10/24 17:58:43;;;;;;;0.20;0.03;;;24.20;99.90;;;;;;26156337;22;20367;-73
2022/10/24 18:08:52;;;;;;;0.20;0.00;;;24.10;99.90;;;;;;26155741;22;20410;-71
2022/10/24 18:18:56;;;;;;;0.20;0.00;;;23.80;99.90;;;;;;26153761;22;20373;-71
2022/10/24 18:29:01;;;;;;;0.20;0.00;;;23.90;99.90;;;;;;26154241;22;20357;-70
2022/10/24 18:39:05;;;;;;;0.20;0.00;;;23.50;99.90;;;;;;26152555;22;20373;-70
2022/10/24 18:49:11;;;;;;;0.20;0.00;;;23.40;99.90;;;;;;26155034;22;20434;-69
2022/10/24 18:59:17;;;;;;;0.20;0.00;;;23.40;99.90;;;;;;26144885;22;20373;-70
2022/10/24 19:09:24;;;;;;;0.20;0.00;;;23.30;99.90;;;;;;26153489;22;20357;-71
2022/10/24 19:19:33;;;;;;;0.20;0.00;;;23.00;99.90;;;;;;26156004;22;20356;-70
2022/10/24 19:29:38;;;;;;;0.20;0.00;;;22.80;99.90;;;;;;26153034;22;20360;-70
2022/10/24 19:39:42;;;;;;;0.20;0.00;;;22.40;99.90;;;;;;26153292;22;20388;-71
2022/10/24 19:49:48;;;;;;;0.20;0.00;;;21.40;99.90;;;;;;26155104;22;20353;-68
2022/10/24 19:59:52;;;;;;;0.20;0.03;;;21.30;99.90;;;;;;26165871;22;20368;-70
2022/10/24 20:09:57;;;;;;;0.20;0.00;;;20.70;99.90;;;;;;26163712;22;20363;-69
2022/10/24 20:20:01;;;;;;;0.20;0.00;;;20.20;99.90;;;;;;26164995;22;20372;-69
2022/10/24 20:30:08;;;;;;;0.20;0.00;;;19.70;99.90;;;;;;26163400;22;20357;-72
2022/10/24 20:40:12;;;;;;;0.20;0.07;;;20.00;99.90;;;;;;26160776;22;20371;-70
2022/10/24 20:50:18;;;;;;;0.20;0.00;;;20.00;99.90;;;;;;26164551;22;20459;-70
2022/10/24 21:00:22;;;;;;;0.20;0.03;;;19.90;99.90;;;;;;26162864;22;20403;-70
2022/10/24 21:10:27;;;;;;;0.20;0.00;;;19.60;99.90;;;;;;26159499;22;20365;-69
2022/10/24 21:20:32;;;;;;;0.20;0.00;;;19.70;99.90;;;;;;26162760;22;20372;-71
2022/10/24 21:30:37;;;;;;;0.20;0.00;;;19.60;99.90;;;;;;26163222;22;20372;-70
2022/10/24 21:40:41;;;;;;;0.20;0.00;;;19.60;99.90;;;;;;26160601;22;20368;-71
2022/10/24 21:50:46;;;;;;;0.20;0.10;;;19.50;99.90;;;;;;26162761;22;20598;-71
2022/10/24 22:00:50;;;;;;;0.20;0.10;;;19.30;99.90;;;;;;26161576;22;20423;-69
2022/10/24 22:11:00;;;;;;;0.20;0.00;;;19.20;99.90;;;;;;26163826;22;20361;-70
2022/10/24 22:21:06;;;;;;;0.20;0.00;;;19.00;99.90;;;;;;26164336;22;20406;-70
2022/10/24 22:31:15;;;;;;;0.20;0.00;;;19.10;99.90;;;;;;26164391;22;20361;-70
2022/10/24 22:41:19;;;;;;;0.20;0.00;;;19.30;99.90;;;;;;26164429;22;20386;-70
2022/10/24 22:51:25;;;;;;;0.20;0.00;;;19.80;99.90;;;;;;26163743;22;20353;-70
2022/10/24 23:01:40;;;;;;;0.20;0.10;;;19.50;99.90;;;;;;26164839;22;20822;-70
2022/10/24 23:11:46;;;;;;;0.20;0.00;;;19.40;99.90;;;;;;26165341;22;20360;-70
2022/10/24 23:21:54;;;;;;;0.20;0.00;;;19.20;99.90;;;;;;26162173;22;20361;-71
2022/10/24 23:32:00;;;;;;;0.20;0.00;;;18.90;99.90;;;;;;26171286;22;20360;-71
2022/10/24 23:42:04;;;;;;;0.20;0.10;;;18.60;99.90;;;;;;26171294;22;20376;-70
2022/10/24 23:52:25;;;;;;;0.20;0.00;;;18.50;99.90;;;;;;26171054;22;20368;-71
